Time;durP1;ratioP1;P1;durP2;ratioP2;P2;SDS_P1;SDS_P2;PMS_P1;PMS_P2;Temp;Humidity;BMP_temperature;BMP_pressure;BME280_temperature;BME280_humidity;BME280_pressure;Samples;Min_cycle;Max_cycle;Signal;HPM_P1;HPM_P2
2023/05/23 00:01:02;;;;;;;9.80;6.68;;;;;;;14.08;100.00;100159.75;4870270;29;20047;-80
2023/05/23 00:03:48;;;;;;;14.68;7.75;;;;;;;13.95;100.00;100138.53;4869149;29;20044;-81
2023/05/23 00:06:33;;;;;;;10.50;7.65;;;;;;;13.98;100.00;100162.72;4871619;29;20055;-81
2023/05/23 00:09:17;;;;;;;17.77;7.25;;;;;;;13.92;100.00;100144.19;4868991;29;20059;-81
2023/05/23 00:12:01;;;;;;;12.02;7.75;;;;;;;13.86;100.00;100161.63;4870472;29;20049;-80
2023/05/23 00:14:46;;;;;;;16.52;8.02;;;;;;;13.84;100.00;100158.31;4871329;29;20500;-80
2023/05/23 00:17:30;;;;;;;13.93;8.30;;;;;;;13.80;100.00;100157.91;4867950;29;20105;-80
2023/05/23 00:20:14;;;;;;;11.25;8.18;;;;;;;13.84;100.00;100158.31;4867263;29;20044;-81
2023/05/23 00:22:59;;;;;;;11.35;7.72;;;;;;;13.38;100.00;100127.81;4869870;29;20043;-81
2023/05/23 00:25:47;;;;;;;13.20;7.63;;;;;;;13.77;100.00;100166.19;4874924;29;20058;-81
2023/05/23 00:28:31;;;;;;;14.80;8.40;;;;;;;13.77;100.00;100168.00;4871693;29;20146;-81
2023/05/23 00:31:16;;;;;;;13.20;8.65;;;;;;;13.71;100.00;100153.72;4868804;29;20137;-81
2023/05/23 00:34:00;;;;;;;11.00;8.30;;;;;;;13.68;100.00;100141.75;4872112;29;20125;-81
2023/05/23 00:36:46;;;;;;;10.77;7.50;;;;;;;13.76;100.00;100143.44;4870488;29;20056;-81
2023/05/23 00:39:30;;;;;;;12.90;7.75;;;;;;;13.98;100.00;100183.03;4866532;29;20044;-80
2023/05/23 00:42:14;;;;;;;11.02;7.65;;;;;;;13.80;100.00;100171.09;4869840;29;20409;-78
2023/05/23 00:44:58;;;;;;;11.13;7.65;;;;;;;13.81;100.00;100185.91;4871389;29;20040;-81
2023/05/23 00:47:42;;;;;;;11.60;7.45;;;;;;;13.74;100.00;100163.91;4871068;29;20096;-81
2023/05/23 00:50:30;;;;;;;13.43;7.20;;;;;;;13.88;100.00;100171.97;4868954;29;20121;-81
2023/05/23 00:53:15;;;;;;;15.68;8.00;;;;;;;13.80;100.00;100167.63;4865433;29;20049;-82
2023/05/23 00:56:00;;;;;;;10.70;6.50;;;;;;;13.69;100.00;100150.47;4868597;29;20188;-82
2023/05/23 00:58:45;;;;;;;13.30;6.40;;;;;;;13.70;100.00;100146.81;4872680;29;20105;-82
2023/05/23 01:01:29;;;;;;;9.23;6.35;;;;;;;14.04;100.00;100168.25;4870172;29;20041;-82
2023/05/23 01:04:15;;;;;;;8.50;5.65;;;;;;;13.85;100.00;100154.66;4869963;29;20052;-81
2023/05/23 01:06:59;;;;;;;7.75;5.43;;;;;;;14.03;100.00;100154.25;4868150;29;20104;-81
2023/05/23 01:09:44;;;;;;;9.65;6.03;;;;;;;14.02;100.00;100160.53;4866292;29;20060;-81
2023/05/23 01:12:55;;;;;;;9.38;6.25;;;;;;;14.12;100.00;100158.38;4870059;29;20105;-80
2023/05/23 01:15:50;;;;;;;8.93;6.00;;;;;;;14.12;100.00;100147.81;4871235;29;20514;-80
2023/05/23 01:18:45;;;;;;;10.30;6.72;;;;;;;14.03;100.00;100170.09;4869254;29;20113;-81
2023/05/23 01:21:30;;;;;;;8.35;5.82;;;;;;;13.80;100.00;100136.78;4866813;29;20059;-81
2023/05/23 01:24:49;;;;;;;9.05;5.60;;;;;;;14.04;100.00;100170.88;4872332;29;20052;-81
2023/05/23 01:27:45;;;;;;;8.65;6.20;;;;;;;13.88;100.00;100174.59;4867094;29;20041;-80
2023/05/23 01:30:32;;;;;;;11.70;6.18;;;;;;;13.69;100.00;100155.75;4868948;29;20057;-80
2023/05/23 01:33:19;;;;;;;10.65;6.07;;;;;;;13.76;100.00;100177.75;4863814;29;20053;-80
2023/05/23 01:36:04;;;;;;;8.50;5.75;;;;;;;13.78;100.00;100181.03;4865164;29;20561;-80
2023/05/23 01:38:48;;;;;;;9.30;6.20;;;;;;;13.54;100.00;100164.50;4872251;29;20132;-80
2023/05/23 01:41:32;;;;;;;11.32;6.88;;;;;;;13.50;100.00;100155.34;4868491;29;20052;-81
2023/05/23 01:44:16;;;;;;;9.00;6.68;;;;;;;13.55;100.00;100163.50;4867636;29;20103;-80
2023/05/23 01:47:07;;;;;;;10.40;5.95;;;;;;;13.89;100.00;100186.78;4867111;29;20429;-81
2023/05/23 01:49:54;;;;;;;8.13;5.82;;;;;;;13.75;100.00;100185.84;4871212;29;20506;-81
2023/05/23 01:52:38;;;;;;;10.10;6.03;;;;;;;13.69;100.00;100166.28;4869714;29;20060;-80
2023/05/23 01:55:25;;;;;;;10.65;5.63;;;;;;;13.89;100.00;100179.72;4873029;29;20044;-79
2023/05/23 01:58:10;;;;;;;12.45;6.20;;;;;;;13.71;100.00;100170.41;4871758;29;20498;-80
2023/05/23 02:00:54;;;;;;;8.05;5.03;;;;;;;13.44;100.00;100140.28;4869400;29;20043;-80
2023/05/23 02:03:39;;;;;;;10.02;6.03;;;;;;;13.67;100.00;100181.50;4861994;29;20188;-81
2023/05/23 02:06:23;;;;;;;10.13;6.07;;;;;;;13.72;100.00;100168.56;4866584;29;20612;-80
2023/05/23 02:09:07;;;;;;;10.07;5.28;;;;;;;13.60;100.00;100164.78;4866820;29;20705;-81
2023/05/23 02:11:51;;;;;;;10.43;4.90;;;;;;;13.82;100.00;100179.63;4867523;29;20101;-80
2023/05/23 02:14:36;;;;;;;9.65;5.72;;;;;;;13.68;100.00;100176.06;4866765;29;20048;-80
2023/05/23 02:17:21;;;;;;;12.65;5.70;;;;;;;13.62;100.00;100184.69;4867837;29;20052;-80
2023/05/23 02:20:06;;;;;;;8.43;5.53;;;;;;;13.79;100.00;100176.53;4869878;29;20177;-81
2023/05/23 02:22:50;;;;;;;8.73;5.53;;;;;;;13.83;100.00;100196.28;4868155;29;20045;-80
2023/05/23 02:25:34;;;;;;;9.85;5.28;;;;;;;13.75;100.00;100148.91;4863823;29;20114;-81
2023/05/23 02:28:19;;;;;;;10.68;5.90;;;;;;;13.89;100.00;100177.06;4868694;29;20056;-81
2023/05/23 02:31:03;;;;;;;11.20;5.90;;;;;;;13.89;100.00;100182.34;4868440;29;20101;-81
2023/05/23 02:33:47;;;;;;;6.82;5.05;;;;;;;13.84;100.00;100176.78;4869342;29;20055;-81
2023/05/23 02:36:32;;;;;;;9.15;5.10;;;;;;;13.53;100.00;100168.16;4868495;29;20524;-81
2023/05/23 02:39:16;;;;;;;6.68;4.78;;;;;;;13.66;100.00;100146.41;4865471;29;20040;-81
2023/05/23 02:42:01;;;;;;;6.95;5.20;;;;;;;13.75;100.00;100178.72;4868136;29;20101;-80
2023/05/23 02:44:45;;;;;;;9.40;4.97;;;;;;;13.82;100.00;100170.88;4867059;29;20115;-81
2023/05/23 02:47:29;;;;;;;7.13;5.03;;;;;;;13.63;100.00;100173.13;4868353;29;20048;-81
2023/05/23 02:50:14;;;;;;;10.43;5.53;;;;;;;13.54;100.00;100174.25;4865573;29;20049;-81
2023/05/23 02:52:58;;;;;;;6.90;4.80;;;;;;;13.43;100.00;100157.91;4873459;29;20491;-82
2023/05/23 02:55:42;;;;;;;6.80;5.00;;;;;;;13.46;100.00;100172.53;4867359;29;20048;-81
2023/05/23 02:58:26;;;;;;;6.07;4.95;;;;;;;13.45;100.00;100173.56;4867867;29;20577;-80
2023/05/23 03:01:11;;;;;;;14.65;5.70;;;;;;;13.29;100.00;100170.09;4870657;29;20048;-82
2023/05/23 03:03:55;;;;;;;11.00;5.90;;;;;;;13.23;100.00;100168.19;4874146;29;20048;-81
2023/05/23 03:06:40;;;;;;;9.57;5.70;;;;;;;13.27;100.00;100180.00;4866396;29;20104;-82
2023/05/23 03:09:25;;;;;;;8.15;5.30;;;;;;;13.23;100.00;100184.00;4866093;29;20105;-80
2023/05/23 03:12:09;;;;;;;9.80;4.88;;;;;;;13.17;100.00;100174.22;4870533;29;20058;-80
2023/05/23 03:14:53;;;;;;;10.45;5.25;;;;;;;13.17;100.00;100182.13;4869879;29;20052;-79
2023/05/23 03:17:37;;;;;;;8.02;5.28;;;;;;;13.03;100.00;100173.19;4867249;29;20412;-82
2023/05/23 03:20:21;;;;;;;10.40;4.70;;;;;;;13.10;100.00;100178.56;4865191;29;20129;-80
2023/05/23 03:23:05;;;;;;;8.77;5.25;;;;;;;13.09;100.00;100182.19;4867896;29;20104;-81
2023/05/23 03:25:49;;;;;;;11.18;5.45;;;;;;;12.97;100.00;100171.31;4868851;29;20060;-81
2023/05/23 03:28:33;;;;;;;10.90;5.85;;;;;;;12.96;100.00;100198.66;4865821;29;20554;-80
2023/05/23 03:31:17;;;;;;;10.07;5.55;;;;;;;12.85;100.00;100184.13;4865418;29;20121;-80
2023/05/23 03:34:04;;;;;;;9.02;4.70;;;;;;;12.98;100.00;100192.22;4866933;29;20523;-81
2023/05/23 03:36:48;;;;;;;7.90;5.10;;;;;;;12.81;100.00;100148.59;4870381;29;20519;-81
2023/05/23 03:39:32;;;;;;;8.85;4.75;;;;;;;13.25;100.00;100203.09;4864165;29;20109;-81
2023/05/23 03:42:17;;;;;;;11.30;4.68;;;;;;;13.12;100.00;100174.75;4864189;29;20056;-81
2023/05/23 03:45:01;;;;;;;8.07;4.57;;;;;;;13.07;100.00;100194.75;4863445;29;20401;-81
2023/05/23 03:47:45;;;;;;;10.32;4.38;;;;;;;12.89;100.00;100174.84;4869974;29;20056;-81
2023/05/23 03:50:29;;;;;;;7.97;4.20;;;;;;;13.07;100.00;100169.22;4872836;29;20143;-80
2023/05/23 03:53:13;;;;;;;9.57;4.80;;;;;;;13.22;100.00;100192.94;4866809;29;20057;-80
2023/05/23 03:55:57;;;;;;;8.10;4.85;;;;;;;13.06;100.00;100179.94;4867028;29;22074;-80
2023/05/23 03:58:41;;;;;;;8.43;4.75;;;;;;;13.15;100.00;100192.00;4865320;29;20092;-81
2023/05/23 04:01:25;;;;;;;7.28;4.25;;;;;;;13.13;100.00;100194.00;4873003;29;20071;-81
2023/05/23 04:04:08;;;;;;;12.20;4.55;;;;;;;13.16;100.00;100183.09;4868374;29;20128;-81
2023/05/23 04:06:53;;;;;;;9.23;4.47;;;;;;;13.21;100.00;100196.56;4868116;29;20047;-81
2023/05/23 04:09:36;;;;;;;8.52;4.80;;;;;;;13.22;100.00;100192.94;4869805;29;20197;-81
2023/05/23 04:12:20;;;;;;;9.75;4.72;;;;;;;13.13;100.00;100194.00;4867751;29;20051;-82
2023/05/23 04:15:05;;;;;;;7.55;4.72;;;;;;;13.02;100.00;100181.31;4871390;29;20047;-81
2023/05/23 04:17:50;;;;;;;8.50;4.57;;;;;;;13.26;100.00;100188.91;4868623;29;20101;-81
2023/05/23 04:20:34;;;;;;;7.32;4.45;;;;;;;13.34;100.00;100195.91;4872216;29;20206;-80
2023/05/23 04:23:19;;;;;;;6.93;4.53;;;;;;;13.36;100.00;100206.25;4867278;29;21641;-81
2023/05/23 04:26:04;;;;;;;10.13;4.88;;;;;;;13.34;100.00;100184.53;4865730;29;20060;-81
2023/05/23 04:28:52;;;;;;;9.68;5.25;;;;;;;13.47;100.00;100205.03;4872522;29;20084;-81
2023/05/23 04:31:37;;;;;;;8.68;4.65;;;;;;;13.34;100.00;100188.00;4870105;29;20109;-81
2023/05/23 04:34:21;;;;;;;8.02;4.75;;;;;;;13.61;100.00;100200.72;4874951;29;20055;-81
2023/05/23 04:37:06;;;;;;;7.13;4.38;;;;;;;13.63;100.00;100204.78;4871092;29;20052;-80
2023/05/23 04:39:49;;;;;;;7.97;4.90;;;;;;;13.68;100.00;100202.44;4866848;29;20511;-80
2023/05/23 04:42:34;;;;;;;10.02;5.22;;;;;;;13.51;100.00;100186.00;4869364;29;20577;-80
2023/05/23 04:45:19;;;;;;;8.55;4.88;;;;;;;13.37;100.00;100173.63;4867328;29;20048;-81
2023/05/23 04:48:03;;;;;;;10.27;5.57;;;;;;;13.29;100.00;100180.63;4868751;29;20080;-80
2023/05/23 04:50:47;;;;;;;7.00;5.18;;;;;;;13.56;100.00;100199.47;4868405;29;20052;-80
2023/05/23 04:53:31;;;;;;;9.60;5.38;;;;;;;13.55;100.00;100215.47;4868510;29;20053;-80
2023/05/23 04:56:16;;;;;;;11.18;5.03;;;;;;;13.42;100.00;100189.72;4866451;29;20092;-81
2023/05/23 04:59:01;;;;;;;7.78;4.82;;;;;;;13.45;100.00;100170.09;4866990;29;20059;-81
2023/05/23 05:01:44;;;;;;;9.27;5.35;;;;;;;13.74;100.00;100200.84;4870413;29;20044;-81
2023/05/23 05:04:28;;;;;;;9.80;4.88;;;;;;;13.90;100.00;100185.78;4866688;29;20049;-81
2023/05/23 05:07:12;;;;;;;14.70;5.43;;;;;;;13.71;100.00;100191.50;4872606;29;20044;-81
2023/05/23 05:09:56;;;;;;;9.02;5.05;;;;;;;13.74;100.00;100171.03;4867008;29;20542;-81
2023/05/23 05:12:45;;;;;;;8.73;4.65;;;;;;;13.92;100.00;100215.44;4867897;29;20044;-81
2023/05/23 05:15:29;;;;;;;8.15;4.68;;;;;;;13.96;100.00;100192.97;4868583;29;20056;-81
2023/05/23 05:18:13;;;;;;;10.85;5.75;;;;;;;13.97;100.00;100191.97;4866642;29;20175;-80
2023/05/23 05:20:57;;;;;;;12.35;5.28;;;;;;;14.07;100.00;100213.56;4869553;29;20460;-80
2023/05/23 05:23:42;;;;;;;8.60;5.10;;;;;;;14.17;100.00;100226.47;4866197;29;20039;-79
2023/05/23 05:26:26;;;;;;;8.30;5.25;;;;;;;14.18;100.00;100214.09;4870390;29;20078;-80
2023/05/23 05:29:12;;;;;;;9.07;5.00;;;;;;;14.16;100.00;100202.91;4870348;29;20563;-80
2023/05/23 05:31:56;;;;;;;9.55;4.70;;;;;;;14.32;100.00;100218.47;4870534;29;20056;-80
2023/05/23 05:34:42;;;;;;;6.82;4.90;;;;;;;14.39;100.00;100207.97;4870852;29;20044;-81
2023/05/23 05:37:26;;;;;;;8.68;5.43;;;;;;;14.43;100.00;100210.03;4870941;29;20048;-82
2023/05/23 05:40:11;;;;;;;11.93;5.35;;;;;;;14.50;100.00;100212.72;4866607;29;20095;-81
2023/05/23 05:42:55;;;;;;;9.27;4.20;;;;;;;14.37;100.00;100184.41;4864664;29;20043;-82
2023/05/23 05:45:39;;;;;;;9.43;4.25;;;;;;;14.45;100.00;100216.94;4864918;29;20071;-82
2023/05/23 05:48:23;;;;;;;6.25;4.00;;;;;;;14.53;100.00;100188.56;4871324;29;20056;-83
2023/05/23 05:51:07;;;;;;;7.88;4.05;;;;;;;14.78;100.00;100201.38;4867528;29;20167;-83
2023/05/23 05:53:52;;;;;;;7.95;4.28;;;;;;;14.97;100.00;100206.97;4867972;29;20044;-81
2023/05/23 05:56:36;;;;;;;7.93;4.18;;;;;;;14.99;100.00;100187.25;4866915;29;20399;-80
2023/05/23 05:59:20;;;;;;;8.93;4.30;;;;;;;15.16;100.00;100197.53;4870588;29;20125;-81
2023/05/23 06:02:04;;;;;;;8.73;4.07;;;;;;;15.28;100.00;100200.44;4867538;29;20048;-81
2023/05/23 06:04:49;;;;;;;13.10;4.88;;;;;;;15.45;100.00;100205.38;4870591;29;20097;-81
2023/05/23 06:07:34;;;;;;;8.15;4.00;;;;;;;15.44;100.00;100187.88;4865173;29;20100;-81
2023/05/23 06:10:19;;;;;;;7.53;4.35;;;;;;;15.56;100.00;100196.84;4863627;29;20044;-80
2023/05/23 06:13:03;;;;;;;5.63;3.78;;;;;;;15.55;98.43;100196.06;4872235;29;20141;-80
2023/05/23 06:15:47;;;;;;;8.32;3.70;;;;;;;15.68;98.39;100195.28;4868033;29;20125;-80
2023/05/23 06:18:31;;;;;;;8.77;3.97;;;;;;;15.64;97.27;100183.47;4867916;29;20100;-80
2023/05/23 06:21:15;;;;;;;8.65;4.32;;;;;;;16.03;95.11;100178.44;4869652;29;20063;-79
2023/05/23 06:24:00;;;;;;;7.65;4.22;;;;;;;15.85;94.19;100187.75;4870648;29;20124;-81
2023/05/23 06:26:44;;;;;;;8.63;3.95;;;;;;;16.17;94.34;100186.41;4865366;29;20097;-81
2023/05/23 06:29:30;;;;;;;8.80;3.33;;;;;;;16.44;93.26;100200.47;4871047;29;20117;-80
2023/05/23 06:32:14;;;;;;;7.78;4.00;;;;;;;15.87;91.29;100194.69;4868702;29;20481;-80
2023/05/23 06:34:58;;;;;;;6.28;3.67;;;;;;;16.00;91.38;100194.75;4863910;29;20178;-81
2023/05/23 06:37:44;;;;;;;9.10;3.90;;;;;;;16.45;90.46;100225.13;4871491;29;20129;-81
2023/05/23 06:40:28;;;;;;;6.60;3.30;;;;;;;16.52;88.27;100213.50;4871594;29;20106;-82
2023/05/23 06:43:12;;;;;;;6.72;3.58;;;;;;;16.46;87.86;100208.22;4870889;29;20072;-81
2023/05/23 06:45:56;;;;;;;4.45;3.40;;;;;;;16.71;87.31;100205.75;4868385;29;20535;-82
2023/05/23 06:48:40;;;;;;;7.47;3.60;;;;;;;16.44;85.29;100197.00;4868236;29;21579;-81
2023/05/23 06:51:24;;;;;;;8.45;3.80;;;;;;;16.37;86.03;100207.59;4866073;29;20149;-82
2023/05/23 06:54:09;;;;;;;9.77;3.65;;;;;;;16.55;86.01;100199.06;4863844;29;20060;-82
2023/05/23 06:56:53;;;;;;;14.57;4.38;;;;;;;16.96;85.58;100203.25;4864861;29;20575;-80
2023/05/23 06:59:37;;;;;;;7.45;3.78;;;;;;;16.79;84.22;100210.81;4861284;29;20052;-81
2023/05/23 07:02:21;;;;;;;8.27;3.85;;;;;;;16.96;84.00;100200.59;4870445;29;20083;-81
2023/05/23 07:05:06;;;;;;;9.35;4.07;;;;;;;17.24;83.98;100202.16;4868291;29;20097;-80
2023/05/23 07:07:50;;;;;;;10.75;4.05;;;;;;;17.51;82.04;100199.44;4865215;29;20048;-80
2023/05/23 07:10:34;;;;;;;3.90;3.53;;;;;;;17.73;80.57;100193.78;4866482;29;20101;-80
2023/05/23 07:13:18;;;;;;;9.05;4.10;;;;;;;18.16;79.91;100204.78;4863837;29;20056;-84
2023/05/23 07:16:02;;;;;;;5.13;3.50;;;;;;;18.21;79.28;100205.75;4866817;29;20064;-83
2023/05/23 07:18:47;;;;;;;10.82;3.95;;;;;;;18.27;78.54;100217.34;4861606;29;20040;-82
2023/05/23 07:21:31;;;;;;;6.05;3.67;;;;;;;18.60;77.22;100213.59;4866401;29;20084;-84
2023/05/23 07:24:16;;;;;;;8.30;4.03;;;;;;;18.25;74.33;100217.56;4873113;29;20404;-85
2023/05/23 07:27:00;;;;;;;8.10;4.10;;;;;;;18.18;75.77;100216.00;4865428;29;20076;-84
2023/05/23 07:29:44;;;;;;;9.25;3.78;;;;;;;18.82;72.78;100223.81;4867543;29;20109;-85
2023/05/23 07:32:28;;;;;;;7.90;4.35;;;;;;;18.67;71.74;100235.66;4868137;29;20557;-85
2023/05/23 07:35:16;;;;;;;7.18;3.88;;;;;;;18.52;72.00;100227.19;4866193;29;20048;-82
2023/05/23 07:38:00;;;;;;;7.50;3.90;;;;;;;18.86;70.92;100233.00;4870475;29;20101;-85
2023/05/23 07:40:44;;;;;;;6.57;3.95;;;;;;;18.80;71.44;100231.22;4871390;29;20043;-83
2023/05/23 07:43:28;;;;;;;7.32;4.03;;;;;;;19.34;70.89;100212.03;4884611;29;20100;-83
2023/05/23 07:46:13;;;;;;;10.68;5.47;;;;;;;18.98;70.66;100220.63;4872126;29;20093;-84
2023/05/23 07:48:56;;;;;;;10.50;4.40;;;;;;;18.67;70.38;100217.03;4870722;29;20180;-83
2023/05/23 07:51:41;;;;;;;11.27;4.40;;;;;;;19.37;70.86;100227.56;4870575;29;20060;-85
2023/05/23 07:54:25;;;;;;;11.55;4.53;;;;;;;19.72;69.21;100234.06;4867835;29;20047;-84
2023/05/23 07:57:10;;;;;;;7.85;4.10;;;;;;;19.29;67.72;100231.34;4870249;29;20047;-85
2023/05/23 07:59:54;;;;;;;9.10;4.70;;;;;;;19.10;67.51;100217.25;4872538;29;20052;-84
2023/05/23 08:02:38;;;;;;;8.95;4.70;;;;;;;19.59;66.99;100209.28;4876795;29;20060;-83
2023/05/23 08:05:22;;;;;;;12.60;4.70;;;;;;;19.61;64.74;100233.00;4873293;29;20044;-83
2023/05/23 08:08:07;;;;;;;5.40;3.85;;;;;;;20.07;66.56;100212.91;4868932;29;20079;-83
2023/05/23 08:10:51;;;;;;;8.68;4.50;;;;;;;20.48;65.05;100229.06;4876243;29;20040;-85
2023/05/23 08:13:35;;;;;;;8.85;5.00;;;;;;;20.73;64.21;100205.88;4871037;29;20051;-82
2023/05/23 08:16:19;;;;;;;5.95;3.85;;;;;;;21.21;64.65;100214.66;4870230;29;20039;-81
2023/05/23 08:19:02;;;;;;;6.88;4.32;;;;;;;21.18;60.87;100210.59;4869392;29;20043;-82
2023/05/23 08:21:46;;;;;;;7.65;4.32;;;;;;;21.14;58.21;100209.44;4873681;29;20036;-82
2023/05/23 08:24:32;;;;;;;5.68;3.65;;;;;;;20.83;56.85;100206.13;4869519;29;20051;-81
2023/05/23 08:27:17;;;;;;;5.95;4.22;;;;;;;21.50;57.78;100207.47;4870779;29;20130;-82
2023/05/23 08:30:02;;;;;;;5.95;3.85;;;;;;;21.82;57.88;100207.00;4868934;29;20056;-81
2023/05/23 08:32:46;;;;;;;7.28;4.10;;;;;;;22.05;58.81;100221.28;4867663;29;20065;-82
2023/05/23 08:35:34;;;;;;;6.38;3.67;;;;;;;22.41;57.38;100215.69;4873146;29;20048;-82
2023/05/23 08:38:20;;;;;;;9.80;4.65;;;;;;;22.28;54.72;100226.72;4869527;29;20044;-82
2023/05/23 08:41:18;;;;;;;7.03;4.25;;;;;;;22.62;54.07;100222.19;4870799;29;20129;-82
2023/05/23 08:44:02;;;;;;;7.20;3.83;;;;;;;22.86;55.53;100213.94;4873300;29;20096;-81
2023/05/23 08:46:48;;;;;;;8.63;4.10;;;;;;;22.97;57.91;100220.25;4872264;29;20052;-82
2023/05/23 08:49:33;;;;;;;4.97;3.60;;;;;;;22.93;57.40;100217.25;4870668;29;20399;-83
2023/05/23 08:52:21;;;;;;;8.32;3.65;;;;;;;23.17;56.31;100200.13;4870800;29;20140;-84
2023/05/23 08:55:07;;;;;;;8.02;3.90;;;;;;;23.32;55.71;100207.56;4865686;29;20140;-83
2023/05/23 08:57:52;;;;;;;7.97;4.18;;;;;;;23.28;55.56;100193.06;4870525;29;20193;-83
2023/05/23 09:00:36;;;;;;;6.68;3.90;;;;;;;23.37;53.82;100216.47;4882293;29;20197;-84
2023/05/23 09:03:22;;;;;;;7.53;4.28;;;;;;;23.56;53.77;100217.97;4868207;29;20081;-84
2023/05/23 09:06:08;;;;;;;9.18;3.78;;;;;;;23.75;55.04;100215.78;4875841;29;20105;-84
2023/05/23 09:08:53;;;;;;;11.02;3.83;;;;;;;23.71;51.62;100209.31;4868648;29;20048;-84
2023/05/23 09:11:38;;;;;;;7.13;4.25;;;;;;;24.09;50.70;100219.06;4867231;29;20048;-83
2023/05/23 09:14:22;;;;;;;7.78;3.75;;;;;;;23.59;53.10;100180.00;4873032;29;20068;-83
2023/05/23 09:17:06;;;;;;;8.40;4.40;;;;;;;23.87;55.57;100199.53;4867129;29;20057;-83
2023/05/23 09:19:51;;;;;;;7.45;4.10;;;;;;;23.78;52.99;100208.03;4872391;29;20048;-84
2023/05/23 09:22:35;;;;;;;8.45;4.30;;;;;;;24.27;53.82;100197.44;4868610;29;20593;-84
2023/05/23 09:25:20;;;;;;;6.90;3.92;;;;;;;24.49;53.41;100205.38;4873756;29;20048;-84
2023/05/23 09:28:05;;;;;;;28.17;7.53;;;;;;;24.48;51.84;100214.50;4872312;29;20039;-85
2023/05/23 09:30:57;;;;;;;23.30;5.88;;;;;;;24.58;51.72;100206.53;4871041;29;20043;-85
2023/05/23 09:33:49;;;;;;;58.88;9.27;;;;;;;24.27;50.15;100203.63;4869498;29;20474;-85
2023/05/23 09:36:33;;;;;;;13.57;5.05;;;;;;;24.28;51.48;100173.06;4870912;29;20116;-85
2023/05/23 09:39:18;;;;;;;9.90;4.40;;;;;;;24.62;51.54;100207.63;4872361;29;20048;-85
2023/05/23 09:42:02;;;;;;;8.50;4.25;;;;;;;24.60;52.41;100176.72;4868550;29;20115;-85
2023/05/23 09:44:46;;;;;;;45.60;9.43;;;;;;;24.58;50.82;100219.13;4869888;29;20048;-84
2023/05/23 09:47:30;;;;;;;16.08;4.97;;;;;;;24.43;50.23;100201.06;4871041;29;20044;-84
2023/05/23 09:50:14;;;;;;;7.35;3.92;;;;;;;24.28;48.43;100210.59;4874137;29;20055;-84
2023/05/23 09:53:00;;;;;;;36.92;7.93;;;;;;;23.38;50.67;100187.78;4868073;29;20048;-85
2023/05/23 09:55:44;;;;;;;13.10;4.57;;;;;;;23.01;50.25;100183.09;4870565;29;20093;-85
2023/05/23 09:58:29;;;;;;;10.80;4.78;;;;;;;22.23;52.09;100190.03;4866646;29;20053;-86
2023/05/23 10:01:13;;;;;;;9.98;4.20;;;;;;;22.22;52.26;100199.09;4867763;29;20177;-85
2023/05/23 10:03:59;;;;;;;5.75;4.18;;;;;;;21.80;52.49;100194.94;4869279;29;20686;-85
2023/05/23 10:06:51;;;;;;;6.15;4.20;;;;;;;21.88;52.69;100205.22;4867449;29;20090;-84
2023/05/23 10:09:39;;;;;;;8.88;4.43;;;;;;;21.46;52.56;100200.16;4870312;29;20068;-85
2023/05/23 10:12:38;;;;;;;7.60;4.45;;;;;;;21.00;53.74;100200.88;4867108;29;20048;-85
2023/05/23 10:15:29;;;;;;;10.35;4.40;;;;;;;21.02;54.80;100203.31;4869471;29;20045;-85
2023/05/23 10:18:20;;;;;;;9.52;4.60;;;;;;;20.98;58.68;100168.28;4867200;29;20511;-84
2023/05/23 10:21:10;;;;;;;7.68;4.45;;;;;;;21.21;59.64;100163.91;4866347;29;20067;-85
2023/05/23 10:23:54;;;;;;;7.25;4.55;;;;;;;21.38;57.44;100185.31;4873363;29;20105;-84
2023/05/23 10:26:39;;;;;;;8.40;4.20;;;;;;;20.97;55.74;100180.00;4867499;29;20092;-84
2023/05/23 10:29:27;;;;;;;8.88;4.95;;;;;;;21.21;55.59;100170.06;4866739;29;20144;-85
2023/05/23 10:32:13;;;;;;;7.15;4.72;;;;;;;21.61;55.65;100178.25;4870333;29;20040;-84
2023/05/23 10:35:07;;;;;;;7.63;4.53;;;;;;;22.19;54.65;100170.16;4868618;29;20140;-85
2023/05/23 10:38:03;;;;;;;8.02;5.13;;;;;;;22.62;53.06;100186.59;4864922;29;20504;-84
2023/05/23 10:40:47;;;;;;;9.40;5.35;;;;;;;23.33;52.38;100174.34;4863520;29;20044;-84
2023/05/23 10:43:53;;;;;;;7.47;4.82;;;;;;;23.61;55.36;100159.09;4862398;29;20048;-84
2023/05/23 10:46:54;;;;;;;9.25;5.13;;;;;;;24.16;52.75;100153.63;4868319;29;20688;-83
2023/05/23 10:49:40;;;;;;;7.00;4.95;;;;;;;24.29;50.95;100147.84;4870488;29;20057;-83
2023/05/23 10:52:27;;;;;;;9.27;5.28;;;;;;;24.27;51.58;100151.84;4868099;29;20056;-84
2023/05/23 10:55:16;;;;;;;11.10;5.15;;;;;;;23.96;51.32;100150.53;4878460;29;20056;-86
2023/05/23 10:58:20;;;;;;;6.75;5.25;;;;;;;23.82;52.78;100149.34;4874216;29;20109;-85
2023/05/23 11:01:06;;;;;;;9.27;6.20;;;;;;;23.47;52.54;100139.91;4879645;29;20055;-85
2023/05/23 11:04:04;;;;;;;8.25;5.32;;;;;;;23.88;52.02;100139.47;4870697;29;20072;-86
2023/05/23 11:06:49;;;;;;;9.98;5.95;;;;;;;23.88;52.53;100131.44;4879542;29;20056;-86
2023/05/23 11:09:33;;;;;;;8.55;6.53;;;;;;;23.96;51.45;100122.91;4869398;29;20052;-85
2023/05/23 11:12:37;;;;;;;10.10;6.40;;;;;;;24.24;51.08;100155.84;4876889;29;20125;-85
2023/05/23 11:15:20;;;;;;;11.68;5.90;;;;;;;24.45;51.63;100137.19;4871454;29;20045;-86
2023/05/23 11:18:05;;;;;;;10.20;5.55;;;;;;;24.64;53.05;100143.75;4870396;29;20040;-86
2023/05/23 11:20:52;;;;;;;7.85;5.43;;;;;;;24.71;53.32;100150.72;4873778;29;20078;-86
2023/05/23 11:23:43;;;;;;;9.50;6.25;;;;;;;24.16;51.46;100159.00;4875441;29;20086;-85
2023/05/23 11:26:28;;;;;;;11.60;6.57;;;;;;;23.98;54.46;100155.66;4876379;29;20051;-85
2023/05/23 11:29:15;;;;;;;9.40;6.15;;;;;;;23.39;56.14;100146.56;4874187;29;20105;-86
2023/05/23 11:32:00;;;;;;;9.88;7.88;;;;;;;22.06;58.52;100153.41;4871648;29;20535;-86
2023/05/23 11:34:44;;;;;;;10.20;7.13;;;;;;;22.18;58.32;100158.66;4877833;29;20087;-85
2023/05/23 11:37:30;;;;;;;10.82;8.10;;;;;;;21.79;58.86;100154.03;4884098;29;20112;-86
2023/05/23 11:40:32;;;;;;;11.48;7.75;;;;;;;21.57;59.42;100167.25;4883770;29;20059;-86
2023/05/23 11:43:18;;;;;;;10.90;7.45;;;;;;;21.44;60.48;100141.66;4882414;29;20541;-85
2023/05/23 11:46:08;;;;;;;12.30;7.65;;;;;;;21.35;61.64;100161.78;4883088;29;20413;-83
2023/05/23 11:48:53;;;;;;;9.95;7.10;;;;;;;21.30;62.30;100145.66;4873056;29;20080;-85
2023/05/23 11:51:37;;;;;;;11.73;7.30;;;;;;;21.16;62.25;100145.16;4876324;29;20470;-85
2023/05/23 11:54:25;;;;;;;11.07;7.50;;;;;;;21.22;62.00;100155.69;4886342;29;20056;-84
2023/05/23 11:57:12;;;;;;;19.10;8.82;;;;;;;20.34;63.07;100142.34;4891279;29;20074;-85
2023/05/23 11:59:56;;;;;;;13.00;7.57;;;;;;;21.05;62.27;100138.78;4888658;29;20043;-86
2023/05/23 12:02:42;;;;;;;10.35;7.53;;;;;;;21.32;60.61;100141.72;4873838;29;20142;-85
2023/05/23 12:05:30;;;;;;;10.38;6.55;;;;;;;21.37;59.98;100116.94;4865172;29;20044;-84
2023/05/23 12:08:17;;;;;;;9.98;6.95;;;;;;;21.62;59.91;100131.81;4868310;29;20447;-80
2023/05/23 12:11:01;;;;;;;8.73;6.18;;;;;;;21.90;59.42;100149.66;4870720;29;20091;-80
2023/05/23 12:13:45;;;;;;;14.10;7.28;;;;;;;21.66;59.17;100149.00;4874873;29;20125;-80
2023/05/23 12:16:31;;;;;;;9.98;6.78;;;;;;;22.13;59.54;100155.09;4871296;29;20049;-80
2023/05/23 12:19:16;;;;;;;13.13;7.30;;;;;;;22.01;60.04;100134.63;4873061;29;20060;-80
2023/05/23 12:22:06;;;;;;;9.23;7.25;;;;;;;22.35;58.86;100139.91;4870388;29;20047;-80
2023/05/23 12:24:54;;;;;;;12.55;8.35;;;;;;;21.95;58.82;100143.59;4870024;29;20048;-79
2023/05/23 12:27:42;;;;;;;16.25;8.90;;;;;;;22.19;58.92;100140.75;4866762;29;20133;-79
2023/05/23 12:30:27;;;;;;;14.38;8.65;;;;;;;22.59;58.24;100137.03;4867766;29;20060;-80
2023/05/23 12:33:11;;;;;;;11.60;7.25;;;;;;;22.87;58.35;100135.25;4868256;29;20060;-78
2023/05/23 12:35:56;;;;;;;10.98;7.65;;;;;;;23.57;58.48;100115.91;4873333;29;20051;-80
2023/05/23 12:38:44;;;;;;;12.80;7.30;;;;;;;24.19;58.08;100121.75;4872501;29;20047;-78
2023/05/23 12:41:28;;;;;;;10.77;7.35;;;;;;;24.59;57.62;100122.25;4871216;29;20419;-80
2023/05/23 12:44:15;;;;;;;11.18;7.85;;;;;;;23.95;55.87;100119.44;4872610;29;20043;-79